Time;durP1;ratioP1;P1;durP2;ratioP2;P2;SDS_P1;SDS_P2;PMS_P1;PMS_P2;Temp;Humidity;BMP_temperature;BMP_pressure;BME280_temperature;BME280_humidity;BME280_pressure;Samples;Min_cycle;Max_cycle;Signal;HPM_P1;HPM_P2
2023/05/16 00:01:34;;;;;;;3.05;2.22;;;;;;;15.64;38.74;101205.94;4961541;28;20047;-69
2023/05/16 00:04:03;;;;;;;4.57;2.75;;;;;;;15.59;39.24;101209.16;4965357;28;20504;-69
2023/05/16 00:06:32;;;;;;;5.68;3.30;;;;;;;15.56;39.29;101217.78;4967645;28;20051;-69
2023/05/16 00:09:00;;;;;;;7.22;3.58;;;;;;;15.53;39.17;101212.56;4961199;28;20039;-70
2023/05/16 00:11:28;;;;;;;4.85;3.33;;;;;;;15.49;39.18;101222.19;4971172;28;20068;-69
2023/05/16 00:13:56;;;;;;;5.35;3.63;;;;;;;15.46;39.66;101219.75;4965178;28;20051;-69
2023/05/16 00:16:28;;;;;;;6.40;4.15;;;;;;;15.42;39.17;101227.47;4965693;28;20506;-69
2023/05/16 00:18:56;;;;;;;5.70;4.40;;;;;;;15.35;39.48;101222.72;4968229;28;20481;-69
2023/05/16 00:21:24;;;;;;;5.45;3.92;;;;;;;15.34;39.26;101226.53;4966393;28;20051;-69
2023/05/16 00:23:52;;;;;;;5.60;3.95;;;;;;;15.30;39.53;101230.59;4968474;28;20051;-70
2023/05/16 00:26:20;;;;;;;5.65;3.92;;;;;;;15.25;39.50;101231.06;4968801;28;20418;-70
2023/05/16 00:28:48;;;;;;;5.43;3.80;;;;;;;15.22;39.77;101228.59;4968510;28;20458;-69
2023/05/16 00:31:16;;;;;;;5.25;3.30;;;;;;;15.18;39.06;101238.19;4965465;28;20042;-69
2023/05/16 00:33:45;;;;;;;5.80;3.45;;;;;;;15.16;39.78;101242.16;4970185;28;20035;-69
2023/05/16 00:36:13;;;;;;;4.35;2.97;;;;;;;15.08;39.69;101237.41;4969403;28;20153;-69
2023/05/16 00:38:41;;;;;;;4.32;2.88;;;;;;;15.03;40.16;101243.38;4967572;28;20620;-69
2023/05/16 00:41:09;;;;;;;4.45;3.00;;;;;;;15.00;40.15;101234.56;4975353;28;20046;-70
2023/05/16 00:43:38;;;;;;;4.45;3.10;;;;;;;14.95;40.22;101242.41;4969108;28;20043;-70
2023/05/16 00:46:06;;;;;;;4.32;3.03;;;;;;;14.91;39.76;101238.25;4965469;28;20055;-70
2023/05/16 00:48:35;;;;;;;4.63;3.10;;;;;;;14.87;40.48;101243.19;4969549;28;20047;-70
2023/05/16 00:51:08;;;;;;;4.53;3.25;;;;;;;14.86;40.19;101248.84;4966178;28;20061;-70
2023/05/16 00:53:36;;;;;;;4.03;3.08;;;;;;;14.76;40.08;101244.22;4966799;28;20050;-70
2023/05/16 00:56:06;;;;;;;4.00;2.80;;;;;;;14.77;40.39;101247.84;4962649;28;20061;-70
2023/05/16 00:58:34;;;;;;;4.10;2.67;;;;;;;14.72;40.05;101244.72;4984772;28;20039;-70
2023/05/16 01:01:02;;;;;;;3.65;2.20;;;;;;;14.68;40.26;101251.56;4965093;28;20047;-70
2023/05/16 01:03:31;;;;;;;3.67;2.05;;;;;;;14.64;40.46;101237.19;4967734;28;20043;-70
2023/05/16 01:05:59;;;;;;;3.42;2.03;;;;;;;14.59;40.31;101244.19;4963506;28;20387;-70
2023/05/16 01:08:29;;;;;;;2.55;1.80;;;;;;;14.56;40.70;101245.34;4966978;28;20054;-70
2023/05/16 01:11:02;;;;;;;3.80;2.10;;;;;;;14.53;41.30;101248.41;4967040;28;20045;-70
2023/05/16 01:13:37;;;;;;;3.50;2.10;;;;;;;14.46;41.09;101252.75;4966352;28;20042;-70
2023/05/16 01:16:10;;;;;;;4.53;2.60;;;;;;;14.42;41.01;101250.47;4969267;28;20070;-69
2023/05/16 01:18:43;;;;;;;4.30;2.33;;;;;;;14.36;40.67;101261.03;4965144;28;20093;-69
2023/05/16 01:21:18;;;;;;;3.70;2.15;;;;;;;14.31;41.06;101255.13;4965210;28;20057;-69
2023/05/16 01:24:00;;;;;;;3.30;2.40;;;;;;;14.28;41.29;101260.03;4968752;28;20113;-70
2023/05/16 01:26:31;;;;;;;4.25;2.60;;;;;;;14.21;40.74;101268.03;4964135;28;20043;-69
2023/05/16 01:29:02;;;;;;;4.45;2.25;;;;;;;14.17;40.44;101274.88;4984976;28;20043;-69
2023/05/16 01:31:30;;;;;;;4.78;2.70;;;;;;;14.13;40.97;101269.78;4964535;28;20050;-70
2023/05/16 01:33:58;;;;;;;5.40;2.35;;;;;;;14.08;41.07;101267.50;4976371;28;20053;-70
2023/05/16 01:36:33;;;;;;;4.70;2.65;;;;;;;14.08;41.65;101273.00;4965624;28;20474;-70
2023/05/16 01:39:14;;;;;;;4.20;2.70;;;;;;;14.06;41.56;101279.66;4963654;28;20055;-70
2023/05/16 01:41:53;;;;;;;5.13;3.03;;;;;;;14.03;40.58;101289.06;4964446;28;20058;-70
2023/05/16 01:44:26;;;;;;;5.20;2.92;;;;;;;13.97;40.82;101289.66;4964276;28;20098;-70
2023/05/16 01:46:57;;;;;;;4.05;2.95;;;;;;;13.93;40.43;101283.59;4962252;28;20055;-70
2023/05/16 01:49:33;;;;;;;5.07;3.30;;;;;;;13.90;40.34;101296.75;4975271;28;20054;-69
2023/05/16 01:52:07;;;;;;;6.47;2.95;;;;;;;13.86;40.40;101301.66;4983465;28;20517;-70
2023/05/16 01:54:38;;;;;;;5.38;2.85;;;;;;;13.80;40.67;101307.75;4968492;28;20134;-70
2023/05/16 01:57:09;;;;;;;5.53;3.00;;;;;;;13.77;41.11;101308.06;4978000;28;20054;-69
2023/05/16 01:59:39;;;;;;;6.55;3.00;;;;;;;13.72;40.48;101318.63;4964061;28;20074;-69
2023/05/16 02:02:06;;;;;;;5.50;3.03;;;;;;;13.68;40.74;101310.81;4982312;28;20042;-70
2023/05/16 02:04:34;;;;;;;4.40;2.72;;;;;;;13.63;40.18;101317.59;4965251;28;20058;-68
2023/05/16 02:07:02;;;;;;;4.22;2.25;;;;;;;13.59;40.28;101318.91;4972555;28;20042;-68
2023/05/16 02:09:30;;;;;;;4.20;2.20;;;;;;;13.57;40.18;101326.44;4961323;28;20131;-68
2023/05/16 02:11:59;;;;;;;5.80;2.40;;;;;;;13.53;40.05;101319.41;4963251;28;20134;-67
2023/05/16 02:14:28;;;;;;;5.20;2.20;;;;;;;13.52;40.49;101325.97;4988184;28;20057;-67
2023/05/16 02:16:57;;;;;;;4.20;2.13;;;;;;;13.48;40.68;101323.63;4978780;28;20502;-67
2023/05/16 02:19:25;;;;;;;4.28;2.00;;;;;;;13.43;40.45;101331.44;4964277;28;20109;-68
2023/05/16 02:21:53;;;;;;;4.20;1.88;;;;;;;13.40;40.66;101328.97;4962715;28;20054;-67
2023/05/16 02:24:21;;;;;;;4.13;2.25;;;;;;;13.37;40.76;101327.34;4968995;28;20046;-68
2023/05/16 02:26:49;;;;;;;3.75;2.08;;;;;;;13.35;40.65;101329.41;4963856;28;20391;-67
2023/05/16 02:29:17;;;;;;;5.85;2.60;;;;;;;13.33;41.08;101336.03;4981394;28;20109;-67
2023/05/16 02:31:46;;;;;;;5.18;2.53;;;;;;;13.33;40.94;101338.78;4961856;28;20047;-67
2023/05/16 02:34:14;;;;;;;4.38;2.40;;;;;;;13.29;41.42;101349.19;4966828;28;20081;-67
2023/05/16 02:36:42;;;;;;;5.90;2.63;;;;;;;13.28;41.10;101335.59;4962041;28;20068;-67
2023/05/16 02:39:10;;;;;;;5.00;2.38;;;;;;;13.27;41.68;101342.97;4966775;28;20043;-68
2023/05/16 02:41:39;;;;;;;5.60;2.40;;;;;;;13.28;41.39;101349.34;4964323;28;20408;-66
2023/05/16 02:44:08;;;;;;;6.03;2.17;;;;;;;13.25;41.38;101347.75;4968855;28;20046;-68
2023/05/16 02:46:36;;;;;;;5.10;2.13;;;;;;;13.24;41.49;101346.00;4962160;28;20557;-67
2023/05/16 02:49:05;;;;;;;4.32;2.00;;;;;;;13.25;40.99;101358.72;4980828;28;20104;-66
2023/05/16 02:51:33;;;;;;;5.68;2.28;;;;;;;13.22;40.95;101356.25;4970320;28;20050;-67
2023/05/16 02:54:01;;;;;;;5.32;2.47;;;;;;;13.20;41.00;101372.88;4970473;28;20050;-67
2023/05/16 02:56:29;;;;;;;5.80;2.28;;;;;;;13.19;41.61;101368.41;4972492;28;20453;-67
2023/05/16 02:58:57;;;;;;;5.90;2.45;;;;;;;13.17;41.33;101375.91;4973862;28;20066;-67
2023/05/16 03:01:25;;;;;;;5.97;2.45;;;;;;;13.15;41.28;101379.81;4961346;28;20395;-67
2023/05/16 03:03:53;;;;;;;6.45;2.25;;;;;;;13.14;41.12;101372.56;4965621;28;20049;-67
2023/05/16 03:06:22;;;;;;;4.65;2.13;;;;;;;13.15;41.49;101377.06;4965172;28;20407;-67
2023/05/16 03:08:50;;;;;;;5.10;2.25;;;;;;;13.13;41.71;101379.94;4964875;28;20047;-67
2023/05/16 03:11:21;;;;;;;5.80;2.05;;;;;;;13.12;41.42;101371.81;4964040;28;20031;-67
2023/05/16 03:13:49;;;;;;;6.45;2.42;;;;;;;13.11;41.16;101376.47;4981792;28;20078;-67
2023/05/16 03:16:17;;;;;;;5.53;1.98;;;;;;;13.09;41.00;101381.25;4956995;28;20070;-66
2023/05/16 03:18:45;;;;;;;6.50;2.33;;;;;;;13.07;41.59;101372.25;4964909;28;20059;-66
2023/05/16 03:21:12;;;;;;;4.55;2.03;;;;;;;13.07;40.73;101374.13;4980327;28;20514;-67
2023/05/16 03:23:42;;;;;;;5.75;2.80;;;;;;;13.08;40.99;101376.75;4966510;28;20051;-67
2023/05/16 03:26:10;;;;;;;5.90;2.17;;;;;;;13.04;41.02;101383.50;4962851;28;20043;-67
2023/05/16 03:28:38;;;;;;;7.20;2.10;;;;;;;13.01;40.62;101375.56;4966650;28;20031;-67
2023/05/16 03:31:06;;;;;;;4.50;2.05;;;;;;;13.00;40.41;101386.69;4965104;28;20049;-67
2023/05/16 03:33:34;;;;;;;5.20;1.85;;;;;;;12.97;40.66;101393.31;4970204;28;20046;-67
2023/05/16 03:36:02;;;;;;;5.78;2.30;;;;;;;12.95;40.48;101387.13;4964790;28;20454;-67
2023/05/16 03:38:31;;;;;;;3.97;2.03;;;;;;;12.93;40.77;101397.34;4981684;28;20130;-67
2023/05/16 03:41:00;;;;;;;5.47;1.70;;;;;;;12.94;41.13;101401.84;4968723;28;20410;-66
2023/05/16 03:43:28;;;;;;;5.80;2.17;;;;;;;12.91;40.74;101404.00;4964935;28;20499;-68
2023/05/16 03:45:56;;;;;;;6.35;2.13;;;;;;;12.89;40.94;101393.13;4958805;28;20050;-67
2023/05/16 03:48:24;;;;;;;4.28;2.20;;;;;;;12.88;40.39;101410.63;4965177;28;20566;-67
2023/05/16 03:50:52;;;;;;;6.30;2.22;;;;;;;12.85;40.41;101409.03;4968172;28;20408;-67
2023/05/16 03:53:20;;;;;;;8.90;1.95;;;;;;;12.83;40.71;101407.41;4968715;28;20399;-66
2023/05/16 03:55:48;;;;;;;5.10;1.90;;;;;;;12.80;40.29;101414.03;4965980;28;20066;-67
2023/05/16 03:58:17;;;;;;;4.53;1.98;;;;;;;12.80;40.53;101424.16;4978985;28;20038;-67
2023/05/16 04:00:45;;;;;;;6.68;2.00;;;;;;;12.76;39.99;101415.34;4978891;28;20046;-67
2023/05/16 04:03:13;;;;;;;7.82;2.20;;;;;;;12.72;39.79;101427.59;4969322;28;20052;-67
2023/05/16 04:05:42;;;;;;;6.43;1.80;;;;;;;12.70;39.81;101428.75;4966081;28;20054;-69
2023/05/16 04:08:10;;;;;;;5.82;1.67;;;;;;;12.67;40.03;101424.38;4972398;28;20093;-67
2023/05/16 04:10:38;;;;;;;5.97;1.60;;;;;;;12.64;40.10;101438.38;4965909;28;20050;-69
2023/05/16 04:13:06;;;;;;;6.38;1.80;;;;;;;12.62;40.31;101445.03;4969995;28;20070;-69
2023/05/16 04:15:35;;;;;;;7.18;2.08;;;;;;;12.61;40.24;101446.84;4969716;28;20047;-69
2023/05/16 04:18:05;;;;;;;5.05;2.20;;;;;;;12.58;40.55;101441.63;4963853;28;20417;-69
2023/05/16 04:20:35;;;;;;;;;;;;;;;12.31;40.78;101444.88;4968486;28;20055;-69
2023/05/16 04:23:03;;;;;;;6.65;1.88;;;;;;;12.51;40.06;101448.66;4968493;28;19926;-69
2023/05/16 04:25:31;;;;;;;5.47;1.67;;;;;;;12.54;40.56;101455.75;4967966;28;20487;-69
2023/05/16 04:27:59;;;;;;;7.07;2.33;;;;;;;12.55;40.75;101460.22;4990538;28;20042;-69
2023/05/16 04:30:27;;;;;;;7.25;2.10;;;;;;;12.54;40.84;101455.75;4965401;28;20521;-69
2023/05/16 04:32:58;;;;;;;6.05;2.28;;;;;;;12.56;40.48;101468.34;4974044;28;20046;-69
2023/05/16 04:35:26;;;;;;;8.40;2.05;;;;;;;12.54;40.47;101475.00;4967545;28;20047;-69
2023/05/16 04:37:55;;;;;;;7.35;2.50;;;;;;;12.53;40.42;101482.34;4968277;28;20085;-69
2023/05/16 04:40:24;;;;;;;6.25;2.30;;;;;;;12.52;40.57;101486.09;4970748;28;20049;-68
2023/05/16 04:42:53;;;;;;;6.40;2.47;;;;;;;12.51;40.25;101489.84;4969718;28;20038;-68
2023/05/16 04:45:21;;;;;;;5.68;2.22;;;;;;;12.52;40.48;101488.84;4969034;28;20046;-69
2023/05/16 04:47:50;;;;;;;6.93;2.22;;;;;;;12.50;40.24;101486.22;4971049;28;20050;-68
2023/05/16 04:50:19;;;;;;;7.03;2.50;;;;;;;12.53;40.32;101484.22;4966528;28;20046;-69
2023/05/16 04:52:47;;;;;;;8.77;2.30;;;;;;;12.50;40.32;101485.34;4970112;28;20038;-69
2023/05/16 04:55:15;;;;;;;6.80;2.60;;;;;;;12.50;40.14;101494.47;4966214;28;20050;-69
2023/05/16 04:57:43;;;;;;;7.15;2.25;;;;;;;12.49;40.73;101494.59;4972487;28;20102;-69
2023/05/16 05:00:12;;;;;;;6.50;2.55;;;;;;;12.51;40.56;101498.06;4979275;28;20130;-69
2023/05/16 05:02:40;;;;;;;6.28;2.28;;;;;;;12.49;40.59;101492.72;4967783;28;20042;-60
2023/05/16 05:05:09;;;;;;;5.65;2.22;;;;;;;12.54;41.25;101496.94;4965642;28;20502;-62
2023/05/16 05:07:39;;;;;;;5.80;2.30;;;;;;;12.57;41.56;101500.28;4966451;28;20118;-69
2023/05/16 05:10:08;;;;;;;5.70;1.98;;;;;;;12.61;41.16;101511.88;4973325;28;20153;-69
2023/05/16 05:12:36;;;;;;;7.78;1.90;;;;;;;12.65;41.19;101513.38;4967796;28;20047;-69
2023/05/16 05:15:06;;;;;;;4.95;1.60;;;;;;;12.72;41.09;101512.72;4962546;28;20058;-68
2023/05/16 05:17:33;;;;;;;7.97;2.67;;;;;;;12.78;41.61;101519.59;4965280;28;20047;-69
2023/05/16 05:20:05;;;;;;;5.47;2.00;;;;;;;12.85;41.43;101521.66;4964387;28;20058;-69
2023/05/16 05:22:33;;;;;;;6.30;2.00;;;;;;;12.94;41.14;101521.88;4965803;28;20117;-69
2023/05/16 05:25:02;;;;;;;5.22;2.50;;;;;;;13.03;41.04;101515.56;4962427;28;20069;-70
2023/05/16 05:27:30;;;;;;;7.50;2.10;;;;;;;13.08;41.01;101527.88;4968247;28;20039;-70
2023/05/16 05:29:58;;;;;;;5.97;2.00;;;;;;;13.16;40.76;101532.72;4963970;28;20561;-69
2023/05/16 05:32:26;;;;;;;5.43;1.73;;;;;;;13.24;40.65;101530.16;4964383;28;20550;-70
2023/05/16 05:34:54;;;;;;;6.18;2.15;;;;;;;13.30;40.86;101535.09;4962958;28;20042;-69
2023/05/16 05:37:22;;;;;;;5.07;1.75;;;;;;;13.35;40.49;101535.59;4967357;28;20045;-69
2023/05/16 05:39:50;;;;;;;6.20;2.10;;;;;;;13.41;40.59;101543.28;4963261;28;20070;-69
2023/05/16 05:42:19;;;;;;;5.45;2.22;;;;;;;13.49;40.16;101548.09;4967645;28;20038;-69
2023/05/16 05:44:47;;;;;;;7.55;1.90;;;;;;;13.53;40.43;101538.59;4965392;28;20123;-69
2023/05/16 05:47:15;;;;;;;7.28;2.17;;;;;;;13.60;40.29;101550.81;4966016;28;20070;-69
2023/05/16 05:49:43;;;;;;;3.78;1.77;;;;;;;13.66;39.87;101552.13;4961197;28;20057;-69
2023/05/16 05:52:11;;;;;;;5.05;1.60;;;;;;;13.72;39.70;101548.81;4962402;28;20035;-69
2023/05/16 05:54:39;;;;;;;5.13;2.10;;;;;;;13.78;39.88;101553.75;4965296;28;20134;-70
2023/05/16 05:57:08;;;;;;;3.65;1.45;;;;;;;13.83;39.96;101559.72;4968314;28;20062;-72
2023/05/16 05:59:37;;;;;;;5.85;1.70;;;;;;;13.92;40.13;101562.53;4970563;28;20937;-72
2023/05/16 06:02:06;;;;;;;6.65;1.60;;;;;;;13.96;39.78;101552.09;4969282;28;20074;-70
2023/05/16 06:04:34;;;;;;;8.27;2.10;;;;;;;14.02;39.41;101555.16;4957454;28;20498;-70
2023/05/16 06:07:02;;;;;;;3.88;1.48;;;;;;;14.08;39.08;101562.00;4960422;28;20409;-69
2023/05/16 06:09:30;;;;;;;4.18;1.50;;;;;;;14.14;38.84;101569.69;4951395;28;20066;-69
2023/05/16 06:11:58;;;;;;;3.53;1.17;;;;;;;14.21;38.61;101570.84;4971164;28;20110;-69
2023/05/16 06:14:26;;;;;;;6.40;1.65;;;;;;;14.25;38.68;101565.97;4964157;28;20168;-70
2023/05/16 06:16:56;;;;;;;5.85;1.42;;;;;;;14.32;37.94;101575.38;4966049;28;20097;-69
2023/05/16 06:19:24;;;;;;;6.15;1.40;;;;;;;14.35;38.18;101584.22;4969383;28;20497;-69
2023/05/16 06:21:52;;;;;;;6.00;1.30;;;;;;;14.40;37.88;101581.06;4964943;28;20097;-69
2023/05/16 06:24:20;;;;;;;4.53;1.23;;;;;;;14.47;38.26;101579.50;4971706;28;20042;-68
2023/05/16 06:26:49;;;;;;;4.00;1.30;;;;;;;14.53;38.63;101589.06;4981151;28;20597;-68
2023/05/16 06:29:17;;;;;;;4.05;1.38;;;;;;;14.59;38.70;101594.91;4970096;28;20085;-68
2023/05/16 06:31:46;;;;;;;4.32;1.35;;;;;;;14.66;38.36;101590.56;4974002;28;20124;-68
2023/05/16 06:34:15;;;;;;;4.47;1.48;;;;;;;14.73;37.74;101588.97;4965559;28;20489;-68
2023/05/16 06:36:43;;;;;;;5.72;1.83;;;;;;;14.79;38.38;101587.50;4977487;28;20471;-68
2023/05/16 06:39:11;;;;;;;4.78;1.60;;;;;;;14.87;37.80;101586.78;4958349;28;20050;-69
2023/05/16 06:41:39;;;;;;;7.07;2.13;;;;;;;14.94;37.42;101587.94;4957328;28;20410;-69
2023/05/16 06:44:11;;;;;;;5.63;1.92;;;;;;;15.01;38.17;101594.66;4955823;28;20054;-69
2023/05/16 06:46:39;;;;;;;6.45;2.05;;;;;;;15.11;38.00;101589.97;4955367;28;20055;-69
2023/05/16 06:49:07;;;;;;;6.70;2.72;;;;;;;15.20;37.55;101582.72;4957488;28;20062;-69
2023/05/16 06:51:36;;;;;;;5.50;1.98;;;;;;;15.30;37.18;101587.19;4961385;28;20057;-69
2023/05/16 06:54:04;;;;;;;4.55;2.10;;;;;;;15.37;37.65;101599.41;4968902;28;20657;-69
2023/05/16 06:56:32;;;;;;;4.28;1.88;;;;;;;15.46;37.36;101594.91;4969969;23;20039;-86
2023/05/16 06:59:01;;;;;;;4.72;1.92;;;;;;;15.55;37.51;101596.75;4973942;28;20419;-87
2023/05/16 07:01:29;;;;;;;6.22;2.10;;;;;;;15.61;36.75;101598.91;4982321;28;20083;-85
2023/05/16 07:03:57;;;;;;;4.63;2.13;;;;;;;15.70;36.81;101595.25;4971654;28;20050;-86
2023/05/16 07:06:25;;;;;;;6.45;2.15;;;;;;;15.74;36.24;101598.59;4964051;28;20046;-86
2023/05/16 07:08:54;;;;;;;5.00;2.15;;;;;;;15.81;35.50;101596.97;4964900;28;20067;-86
2023/05/16 07:11:22;;;;;;;6.00;2.17;;;;;;;15.79;35.45;101601.78;4980710;28;20510;-86
2023/05/16 07:13:50;;;;;;;6.15;2.00;;;;;;;15.76;35.41;101596.53;4961900;28;20043;-86
2023/05/16 07:16:18;;;;;;;5.63;2.05;;;;;;;15.73;35.08;101602.38;4981718;28;20053;-85
2023/05/16 07:18:46;;;;;;;4.35;2.08;;;;;;;15.66;34.84;101595.72;4953508;28;20042;-85
2023/05/16 07:21:14;;;;;;;5.97;2.03;;;;;;;15.62;34.85;101611.69;4974077;28;20367;-86
2023/05/16 07:23:42;;;;;;;4.78;1.98;;;;;;;15.55;34.75;101610.56;4963207;28;20079;-86
2023/05/16 07:26:12;;;;;;;5.82;1.90;;;;;;;15.50;34.55;101607.38;4988858;28;20043;-84
2023/05/16 07:28:43;;;;;;;4.13;1.60;;;;;;;15.40;34.86;101617.56;4977337;28;20058;-84
2023/05/16 07:31:16;;;;;;;5.75;1.60;;;;;;;15.35;34.54;101622.63;4961209;28;20058;-85
2023/05/16 07:34:40;;;;;;;5.22;1.95;;;;;;;15.21;33.90;101617.53;4959065;28;20055;-86
2023/05/16 07:37:11;;;;;;;3.80;1.67;;;;;;;15.10;35.04;101622.19;4958169;28;20039;-83
2023/05/16 07:39:39;;;;;;;4.35;1.85;;;;;;;15.04;34.23;101616.38;4980635;28;20040;-83
2023/05/16 07:42:09;;;;;;;5.85;1.50;;;;;;;14.99;34.41;101613.22;4975676;28;21170;-84
2023/05/16 07:44:37;;;;;;;5.95;1.73;;;;;;;14.92;34.43;101623.94;4962090;28;20051;-84
2023/05/16 07:47:06;;;;;;;5.53;1.90;;;;;;;14.89;34.39;101606.81;4962676;28;20040;-85
2023/05/16 07:49:34;;;;;;;4.03;1.50;;;;;;;14.87;35.05;101623.50;4985049;28;20051;-86
2023/05/16 07:52:02;;;;;;;3.60;1.58;;;;;;;14.88;34.67;101616.97;4968098;28;20116;-86
2023/05/16 07:54:31;;;;;;;6.05;1.50;;;;;;;14.93;35.24;101625.66;4977315;28;20034;-85
2023/05/16 07:56:59;;;;;;;4.22;1.52;;;;;;;14.98;35.68;101630.75;4970265;28;20371;-86
2023/05/16 07:59:28;;;;;;;4.60;1.50;;;;;;;15.06;35.30;101625.38;4965106;28;20514;-85
2023/05/16 08:01:56;;;;;;;4.57;1.60;;;;;;;15.12;35.43;101614.63;4977400;28;20048;-85
2023/05/16 08:04:24;;;;;;;4.35;1.42;;;;;;;15.20;34.39;101622.19;4975869;28;20050;-86
2023/05/16 08:06:52;;;;;;;5.90;1.40;;;;;;;15.26;34.36;101613.31;4971830;28;20054;-85
2023/05/16 08:09:20;;;;;;;3.88;1.20;;;;;;;15.33;33.51;101620.00;4977089;28;20039;-85
2023/05/16 08:11:48;;;;;;;3.15;1.42;;;;;;;15.38;33.49;101616.84;4959422;28;20111;-86
2023/05/16 08:14:17;;;;;;;3.00;1.30;;;;;;;15.44;33.67;101617.09;4969538;28;20039;-86
2023/05/16 08:16:46;;;;;;;6.85;1.40;;;;;;;15.50;33.37;101619.28;4981410;28;20091;-86
2023/05/16 08:19:14;;;;;;;3.72;1.25;;;;;;;15.55;32.97;101623.47;4980464;28;20050;-86
2023/05/16 08:21:42;;;;;;;2.45;1.35;;;;;;;15.62;33.25;101616.34;4973901;28;20071;-86
2023/05/16 08:24:11;;;;;;;4.38;1.25;;;;;;;15.69;33.03;101614.72;4977028;28;20039;-86
2023/05/16 08:26:39;;;;;;;4.60;1.20;;;;;;;15.76;32.69;101626.91;4959126;28;20165;-85
2023/05/16 08:29:07;;;;;;;2.00;1.00;;;;;;;15.84;32.53;101615.97;4977129;28;20043;-86
2023/05/16 08:31:38;;;;;;;3.33;1.00;;;;;;;15.94;32.98;101615.94;4958398;28;20049;-85
2023/05/16 08:34:09;;;;;;;2.50;1.10;;;;;;;16.01;32.47;101614.31;4963344;28;20135;-85
2023/05/16 08:36:37;;;;;;;3.47;1.02;;;;;;;16.10;32.18;101618.94;4976563;28;20455;-85
2023/05/16 08:39:06;;;;;;;2.50;1.10;;;;;;;16.20;32.51;101612.38;4976790;28;20137;-86
2023/05/16 08:41:36;;;;;;;3.50;1.00;;;;;;;16.28;32.05;101614.38;4974899;28;20151;-85
2023/05/16 08:44:05;;;;;;;3.58;1.20;;;;;;;16.34;31.84;101626.69;4969138;28;20472;-86
2023/05/16 08:46:35;;;;;;;2.85;1.30;;;;;;;16.41;31.73;101617.69;4967337;28;20027;-86
2023/05/16 08:49:06;;;;;;;3.00;1.27;;;;;;;16.49;31.74;101623.28;4963162;28;20078;-86
2023/05/16 08:51:38;;;;;;;3.95;1.13;;;;;;;16.57;31.71;101633.56;4958704;28;20106;-86
2023/05/16 08:54:12;;;;;;;4.65;1.30;;;;;;;16.63;31.58;101627.41;4957682;28;20114;-87
2023/05/16 08:56:41;;;;;;;3.25;1.20;;;;;;;16.69;31.78;101631.44;4982249;28;20047;-86
2023/05/16 08:59:10;;;;;;;4.50;1.40;;;;;;;16.75;31.54;101626.16;4960031;28;20146;-86
2023/05/16 09:01:38;;;;;;;5.38;1.48;;;;;;;16.79;31.44;101635.00;4972494;28;20043;-86
2023/05/16 09:04:08;;;;;;;3.95;1.27;;;;;;;16.82;30.78;101630.06;4975178;28;20111;-86
2023/05/16 09:06:37;;;;;;;3.33;1.05;;;;;;;16.83;30.45;101630.91;4962376;28;20047;-85
2023/05/16 09:09:06;;;;;;;3.83;1.00;;;;;;;16.82;30.27;101626.41;4977876;28;20053;-85
2023/05/16 09:11:35;;;;;;;3.78;1.23;;;;;;;16.80;30.08;101628.47;4978955;28;20123;-86
2023/05/16 09:14:04;;;;;;;3.08;1.15;;;;;;;16.75;29.79;101617.00;4962946;28;20100;-85
2023/05/16 09:16:32;;;;;;;3.13;0.88;;;;;;;16.71;30.66;101612.81;4959376;28;20058;-83
2023/05/16 09:19:01;;;;;;;2.85;1.10;;;;;;;16.69;30.07;101628.69;4959668;28;20490;-86
2023/05/16 09:21:32;;;;;;;2.58;1.10;;;;;;;16.66;30.39;101618.78;4959830;28;20051;-85
2023/05/16 09:24:04;;;;;;;3.17;1.00;;;;;;;16.64;29.42;101618.09;4971968;28;20150;-86
2023/05/16 09:26:33;;;;;;;2.72;0.90;;;;;;;16.57;30.25;101628.03;4963919;28;20462;-85
2023/05/16 09:29:01;;;;;;;3.08;1.38;;;;;;;16.56;30.29;101627.19;4956460;28;20130;-86
2023/05/16 09:31:35;;;;;;;4.95;1.30;;;;;;;16.54;29.57;101617.28;4957638;28;20083;-86
2023/05/16 09:34:13;;;;;;;2.88;0.90;;;;;;;16.53;29.75;101610.03;4964907;28;20039;-87
2023/05/16 09:53:10;;;;;;;3.35;1.02;;;;;;;16.64;30.43;101607.91;4909411;29;20056;-87
2023/05/16 09:55:38;;;;;;;3.10;1.15;;;;;;;16.69;29.33;101610.19;4963666;28;20047;-87
2023/05/16 09:58:06;;;;;;;3.45;1.10;;;;;;;16.74;29.53;101609.75;4967252;28;20042;-87
2023/05/16 10:00:34;;;;;;;3.67;1.25;;;;;;;16.79;29.34;101611.00;4959578;28;20042;-86
2023/05/16 10:03:02;;;;;;;1.90;1.00;;;;;;;16.84;28.92;101605.00;4959081;28;20059;-87
2023/05/16 10:05:34;;;;;;;3.55;1.00;;;;;;;16.86;28.52;101601.06;4978813;28;20050;-86
2023/05/16 10:08:03;;;;;;;3.55;1.23;;;;;;;16.90;28.71;101618.22;4963754;28;20125;-85
2023/05/16 10:10:36;;;;;;;2.40;1.15;;;;;;;16.94;28.07;101616.84;4959260;28;20077;-86
2023/05/16 10:13:07;;;;;;;3.05;1.00;;;;;;;16.93;28.32;101615.97;4955275;28;20043;-87
2023/05/16 10:15:37;;;;;;;4.03;1.10;;;;;;;16.93;27.78;101604.06;4972856;28;20054;-86
2023/05/16 10:18:10;;;;;;;3.45;0.93;;;;;;;16.92;27.88;101610.59;4962891;28;20102;-84
2023/05/16 10:20:41;;;;;;;3.15;1.08;;;;;;;16.90;27.80;101621.84;4963519;28;20471;-86
2023/05/16 10:23:15;;;;;;;3.72;1.27;;;;;;;16.89;27.59;101625.63;4963792;28;20050;-85
2023/05/16 10:25:45;;;;;;;4.38;1.30;;;;;;;16.85;28.06;101620.56;4979120;28;20099;-85
2023/05/16 10:28:15;;;;;;;4.13;1.02;;;;;;;16.81;27.93;101625.56;4970992;28;20150;-85
2023/05/16 10:30:44;;;;;;;4.90;1.55;;;;;;;16.79;27.89;101624.81;4967647;28;20057;-84
2023/05/16 10:33:13;;;;;;;2.92;0.90;;;;;;;16.73;28.14;101628.22;4958900;28;20054;-85
2023/05/16 10:35:42;;;;;;;4.93;1.95;;;;;;;16.69;27.97;101617.63;4961528;28;20061;-86
2023/05/16 10:38:11;;;;;;;3.28;1.00;;;;;;;16.66;28.47;101620.72;4974443;28;20069;-85
2023/05/16 10:40:40;;;;;;;2.53;0.82;;;;;;;16.61;28.58;101612.88;4957123;28;20043;-85
2023/05/16 10:43:23;;;;;;;3.08;1.10;;;;;;;16.58;28.26;101619.56;4980181;28;20445;-83
2023/05/16 10:45:55;;;;;;;3.45;1.10;;;;;;;16.55;28.26;101616.28;4964799;28;20082;-83
2023/05/16 10:48:29;;;;;;;3.55;1.00;;;;;;;16.51;28.34;101615.69;4969696;28;20038;-83
2023/05/16 10:50:57;;;;;;;2.90;1.00;;;;;;;16.51;28.75;101623.13;4959728;28;20057;-83
2023/05/16 10:53:30;;;;;;;3.03;0.98;;;;;;;16.51;28.01;101618.47;4969346;28;20050;-83
2023/05/16 10:56:10;;;;;;;3.47;1.20;;;;;;;16.49;28.04;101616.91;4989847;28;20557;-83
2023/05/16 10:58:44;;;;;;;2.95;1.45;;;;;;;16.47;28.49;101622.56;4976107;28;20047;-82
2023/05/16 11:01:20;;;;;;;4.88;2.13;;;;;;;16.46;29.54;101628.25;4958079;28;20565;-83
2023/05/16 11:04:10;;;;;;;5.28;3.08;;;;;;;16.43;29.82;101629.41;4950938;28;20357;-82
2023/05/16 11:06:46;;;;;;;5.35;2.90;;;;;;;16.43;29.70;101631.31;4952444;28;20054;-83
2023/05/16 11:09:26;;;;;;;4.93;3.15;;;;;;;16.43;29.66;101634.94;4962287;28;20090;-83
2023/05/16 11:12:05;;;;;;;5.57;2.85;;;;;;;16.43;29.76;101634.94;4961474;28;20058;-82
2023/05/16 11:14:41;;;;;;;5.50;3.15;;;;;;;16.43;29.95;101646.00;4967435;28;20046;-82
2023/05/16 11:17:10;;;;;;;4.75;2.22;;;;;;;16.40;29.80;101639.91;4959315;28;20498;-82
2023/05/16 11:19:44;;;;;;;7.10;2.70;;;;;;;16.40;29.77;101638.03;4978075;28;20047;-83
2023/05/16 11:22:29;;;;;;;3.58;1.50;;;;;;;16.37;29.48;101637.44;4980851;28;20065;-84
2023/05/16 11:25:00;;;;;;;4.47;1.30;;;;;;;16.34;29.73;101635.84;4960132;28;20861;-87
2023/05/16 11:27:30;;;;;;;3.45;1.27;;;;;;;16.34;29.32;101635.84;4960380;28;20073;-86
2023/05/16 11:30:14;;;;;;;2.17;1.00;;;;;;;16.32;29.29;101624.13;4962081;28;20598;-85
2023/05/16 11:32:43;;;;;;;2.38;1.00;;;;;;;16.30;29.40;101622.53;4974961;28;20042;-86
2023/05/16 11:35:13;;;;;;;3.88;1.05;;;;;;;16.31;29.79;101618.75;4981926;28;20042;-87
2023/05/16 11:37:42;;;;;;;2.97;1.05;;;;;;;16.33;29.70;101625.81;4959670;28;20118;-87
2023/05/16 11:40:12;;;;;;;2.47;0.80;;;;;;;16.36;29.60;101616.38;4974410;28;20054;-87
2023/05/16 11:42:42;;;;;;;1.88;0.88;;;;;;;16.38;29.68;101622.63;4961447;28;20117;-86
2023/05/16 11:45:15;;;;;;;1.60;0.60;;;;;;;16.41;29.03;101614.91;4970562;28;20123;-89
2023/05/16 11:47:46;;;;;;;2.97;0.80;;;;;;;16.39;29.25;101622.47;4959970;28;20047;-87
2023/05/16 11:50:16;;;;;;;3.25;0.90;;;;;;;16.43;29.41;101621.13;4967397;28;20407;-86
2023/05/16 11:52:47;;;;;;;2.63;0.80;;;;;;;16.50;29.59;101621.38;4968939;28;20425;-86